sensor_id;sensor_type;location;lat;lon;timestamp;P1;durP1;ratioP1;P2;durP2;ratioP2
71800;SDS011;59647;55.838;37.292;2023-05-19T00:02:11;1.92;;;1.30;;
71800;SDS011;59647;55.838;37.292;2023-05-19T00:04:40;2.42;;;1.65;;
71800;SDS011;59647;55.838;37.292;2023-05-19T00:07:07;5.25;;;2.03;;
71800;SDS011;59647;55.838;37.292;2023-05-19T00:09:36;2.83;;;1.40;;
71800;SDS011;59647;55.838;37.292;2023-05-19T00:12:02;5.18;;;1.65;;
71800;SDS011;59647;55.838;37.292;2023-05-19T00:14:28;1.73;;;1.17;;
71800;SDS011;59647;55.838;37.292;2023-05-19T00:16:55;3.53;;;1.35;;
71800;SDS011;59647;55.838;37.292;2023-05-19T00:19:23;11.10;;;2.42;;
71800;SDS011;59647;55.838;37.292;2023-05-19T00:21:50;2.80;;;1.42;;
71800;SDS011;59647;55.838;37.292;2023-05-19T00:24:16;1.50;;;0.90;;
71800;SDS011;59647;55.838;37.292;2023-05-19T00:26:42;1.73;;;0.88;;
71800;SDS011;59647;55.838;37.292;2023-05-19T00:29:08;1.45;;;0.80;;
71800;SDS011;59647;55.838;37.292;2023-05-19T00:31:34;2.85;;;1.00;;
71800;SDS011;59647;55.838;37.292;2023-05-19T00:34:01;2.03;;;0.88;;
71800;SDS011;59647;55.838;37.292;2023-05-19T00:36:27;1.95;;;0.80;;
71800;SDS011;59647;55.838;37.292;2023-05-19T00:38:55;0.90;;;0.63;;
71800;SDS011;59647;55.838;37.292;2023-05-19T00:41:21;1.65;;;0.80;;
71800;SDS011;59647;55.838;37.292;2023-05-19T00:43:47;1.00;;;0.57;;
71800;SDS011;59647;55.838;37.292;2023-05-19T00:46:14;1.08;;;0.73;;
71800;SDS011;59647;55.838;37.292;2023-05-19T00:48:40;1.08;;;0.68;;
71800;SDS011;59647;55.838;37.292;2023-05-19T00:51:09;2.35;;;0.60;;
71800;SDS011;59647;55.838;37.292;2023-05-19T00:53:39;1.25;;;0.73;;
71800;SDS011;59647;55.838;37.292;2023-05-19T00:56:05;1.13;;;0.80;;
71800;SDS011;59647;55.838;37.292;2023-05-19T00:58:32;1.20;;;0.60;;
71800;SDS011;59647;55.838;37.292;2023-05-19T01:01:00;1.15;;;0.70;;
71800;SDS011;59647;55.838;37.292;2023-05-19T01:03:32;0.98;;;0.60;;
71800;SDS011;59647;55.838;37.292;2023-05-19T01:05:59;1.15;;;0.68;;
71800;SDS011;59647;55.838;37.292;2023-05-19T01:08:30;3.13;;;0.60;;
71800;SDS011;59647;55.838;37.292;2023-05-19T01:11:01;1.98;;;0.98;;
71800;SDS011;59647;55.838;37.292;2023-05-19T01:13:28;0.88;;;0.50;;
71800;SDS011;59647;55.838;37.292;2023-05-19T01:15:56;1.73;;;1.00;;
71800;SDS011;59647;55.838;37.292;2023-05-19T01:24:39;1.90;;;1.10;;
71800;SDS011;59647;55.838;37.292;2023-05-19T01:30:28;6.95;;;2.55;;
71800;SDS011;59647;55.838;37.292;2023-05-19T01:33:14;10.20;;;2.17;;
71800;SDS011;59647;55.838;37.292;2023-05-19T01:35:43;7.82;;;2.65;;
71800;SDS011;59647;55.838;37.292;2023-05-19T01:38:10;5.75;;;2.42;;
71800;SDS011;59647;55.838;37.292;2023-05-19T01:40:39;5.65;;;2.67;;
71800;SDS011;59647;55.838;37.292;2023-05-19T01:43:06;4.93;;;2.97;;
71800;SDS011;59647;55.838;37.292;2023-05-19T01:45:36;5.60;;;2.40;;
71800;SDS011;59647;55.838;37.292;2023-05-19T01:48:03;8.27;;;2.45;;
71800;SDS011;59647;55.838;37.292;2023-05-19T01:50:30;4.93;;;2.40;;
71800;SDS011;59647;55.838;37.292;2023-05-19T01:52:57;5.45;;;2.40;;
71800;SDS011;59647;55.838;37.292;2023-05-19T01:55:23;5.63;;;2.55;;
71800;SDS011;59647;55.838;37.292;2023-05-19T01:58:10;7.80;;;2.53;;
71800;SDS011;59647;55.838;37.292;2023-05-19T02:03:52;5.32;;;2.42;;
71800;SDS011;59647;55.838;37.292;2023-05-19T02:12:03;8.27;;;2.47;;
71800;SDS011;59647;55.838;37.292;2023-05-19T02:17:17;7.45;;;2.72;;
71800;SDS011;59647;55.838;37.292;2023-05-19T02:19:45;4.15;;;2.53;;
71800;SDS011;59647;55.838;37.292;2023-05-19T02:22:13;6.57;;;2.28;;
71800;SDS011;59647;55.838;37.292;2023-05-19T02:24:39;5.50;;;2.70;;
71800;SDS011;59647;55.838;37.292;2023-05-19T02:27:05;5.95;;;2.17;;
71800;SDS011;59647;55.838;37.292;2023-05-19T02:29:32;4.72;;;2.55;;
71800;SDS011;59647;55.838;37.292;2023-05-19T02:31:59;9.50;;;3.05;;
71800;SDS011;59647;55.838;37.292;2023-05-19T02:34:26;5.22;;;2.58;;
71800;SDS011;59647;55.838;37.292;2023-05-19T02:36:51;7.28;;;2.65;;
71800;SDS011;59647;55.838;37.292;2023-05-19T02:39:18;4.38;;;2.70;;
71800;SDS011;59647;55.838;37.292;2023-05-19T02:41:43;5.97;;;2.72;;
71800;SDS011;59647;55.838;37.292;2023-05-19T02:44:09;6.13;;;3.13;;
71800;SDS011;59647;55.838;37.292;2023-05-19T02:46:35;6.10;;;2.70;;
71800;SDS011;59647;55.838;37.292;2023-05-19T02:49:02;6.97;;;3.17;;
71800;SDS011;59647;55.838;37.292;2023-05-19T02:51:28;8.73;;;3.22;;
71800;SDS011;59647;55.838;37.292;2023-05-19T02:53:54;7.80;;;3.33;;
71800;SDS011;59647;55.838;37.292;2023-05-19T02:56:19;9.13;;;3.28;;
71800;SDS011;59647;55.838;37.292;2023-05-19T02:58:46;6.20;;;2.92;;
71800;SDS011;59647;55.838;37.292;2023-05-19T03:01:12;6.57;;;3.80;;
71800;SDS011;59647;55.838;37.292;2023-05-19T03:03:37;9.35;;;4.05;;
71800;SDS011;59647;55.838;37.292;2023-05-19T03:06:03;10.23;;;4.13;;
71800;SDS011;59647;55.838;37.292;2023-05-19T03:08:33;8.35;;;3.85;;
71800;SDS011;59647;55.838;37.292;2023-05-19T03:11:01;5.78;;;3.58;;
71800;SDS011;59647;55.838;37.292;2023-05-19T03:13:27;7.05;;;3.47;;
71800;SDS011;59647;55.838;37.292;2023-05-19T03:15:53;7.53;;;4.05;;
71800;SDS011;59647;55.838;37.292;2023-05-19T03:18:21;6.60;;;3.45;;
71800;SDS011;59647;55.838;37.292;2023-05-19T03:20:49;6.63;;;3.58;;
71800;SDS011;59647;55.838;37.292;2023-05-19T03:23:15;8.65;;;3.50;;
71800;SDS011;59647;55.838;37.292;2023-05-19T03:25:41;7.10;;;3.33;;
71800;SDS011;59647;55.838;37.292;2023-05-19T03:28:07;7.75;;;3.88;;
71800;SDS011;59647;55.838;37.292;2023-05-19T03:30:33;8.27;;;3.20;;
71800;SDS011;59647;55.838;37.292;2023-05-19T03:33:10;6.10;;;3.28;;
71800;SDS011;59647;55.838;37.292;2023-05-19T03:35:36;8.02;;;3.47;;
71800;SDS011;59647;55.838;37.292;2023-05-19T03:38:03;6.40;;;3.72;;
71800;SDS011;59647;55.838;37.292;2023-05-19T03:40:29;8.80;;;4.22;;
71800;SDS011;59647;55.838;37.292;2023-05-19T03:43:01;8.25;;;3.90;;
71800;SDS011;59647;55.838;37.292;2023-05-19T03:45:28;6.32;;;3.15;;
71800;SDS011;59647;55.838;37.292;2023-05-19T03:47:55;8.02;;;3.65;;
71800;SDS011;59647;55.838;37.292;2023-05-19T03:50:46;5.88;;;3.47;;
71800;SDS011;59647;55.838;37.292;2023-05-19T03:53:20;6.47;;;3.55;;
71800;SDS011;59647;55.838;37.292;2023-05-19T03:55:46;10.20;;;3.83;;
71800;SDS011;59647;55.838;37.292;2023-05-19T03:58:14;8.27;;;3.85;;
71800;SDS011;59647;55.838;37.292;2023-05-19T04:00:40;7.03;;;3.88;;
71800;SDS011;59647;55.838;37.292;2023-05-19T04:03:06;8.98;;;4.25;;
71800;SDS011;59647;55.838;37.292;2023-05-19T04:05:32;10.20;;;4.40;;
71800;SDS011;59647;55.838;37.292;2023-05-19T04:07:59;8.80;;;3.55;;
71800;SDS011;59647;55.838;37.292;2023-05-19T04:10:25;10.70;;;3.88;;
71800;SDS011;59647;55.838;37.292;2023-05-19T04:12:53;7.47;;;4.13;;
71800;SDS011;59647;55.838;37.292;2023-05-19T04:15:19;8.73;;;3.88;;
71800;SDS011;59647;55.838;37.292;2023-05-19T04:17:45;9.98;;;4.25;;
71800;SDS011;59647;55.838;37.292;2023-05-19T04:20:11;6.88;;;4.40;;
71800;SDS011;59647;55.838;37.292;2023-05-19T04:22:37;7.45;;;4.25;;
71800;SDS011;59647;55.838;37.292;2023-05-19T04:25:03;8.73;;;4.32;;
71800;SDS011;59647;55.838;37.292;2023-05-19T04:27:30;7.45;;;3.97;;
71800;SDS011;59647;55.838;37.292;2023-05-19T04:30:01;6.90;;;3.50;;
71800;SDS011;59647;55.838;37.292;2023-05-19T04:32:31;6.40;;;3.58;;
71800;SDS011;59647;55.838;37.292;2023-05-19T04:34:57;6.55;;;3.95;;
71800;SDS011;59647;55.838;37.292;2023-05-19T04:37:25;16.92;;;4.45;;
71800;SDS011;59647;55.838;37.292;2023-05-19T04:39:51;7.45;;;4.10;;
71800;SDS011;59647;55.838;37.292;2023-05-19T04:42:20;12.05;;;4.55;;
71800;SDS011;59647;55.838;37.292;2023-05-19T04:44:47;8.88;;;3.90;;
71800;SDS011;59647;55.838;37.292;2023-05-19T04:47:17;8.13;;;4.03;;
71800;SDS011;59647;55.838;37.292;2023-05-19T04:49:45;9.40;;;4.28;;
71800;SDS011;59647;55.838;37.292;2023-05-19T04:52:13;8.38;;;4.53;;
71800;SDS011;59647;55.838;37.292;2023-05-19T04:54:39;8.00;;;4.57;;
71800;SDS011;59647;55.838;37.292;2023-05-19T04:57:06;11.57;;;4.43;;
71800;SDS011;59647;55.838;37.292;2023-05-19T04:59:36;8.07;;;4.32;;
71800;SDS011;59647;55.838;37.292;2023-05-19T05:02:04;8.65;;;4.70;;
71800;SDS011;59647;55.838;37.292;2023-05-19T05:04:30;9.50;;;5.05;;
71800;SDS011;59647;55.838;37.292;2023-05-19T05:06:57;11.80;;;5.32;;
71800;SDS011;59647;55.838;37.292;2023-05-19T05:09:24;10.75;;;5.55;;
71800;SDS011;59647;55.838;37.292;2023-05-19T05:11:50;12.70;;;5.90;;
71800;SDS011;59647;55.838;37.292;2023-05-19T05:14:18;11.13;;;5.30;;
71800;SDS011;59647;55.838;37.292;2023-05-19T05:16:45;9.50;;;5.03;;
71800;SDS011;59647;55.838;37.292;2023-05-19T05:19:17;10.80;;;5.35;;
71800;SDS011;59647;55.838;37.292;2023-05-19T05:21:43;12.50;;;6.25;;
71800;SDS011;59647;55.838;37.292;2023-05-19T05:24:09;11.65;;;5.47;;
71800;SDS011;59647;55.838;37.292;2023-05-19T05:26:36;11.80;;;6.35;;
71800;SDS011;59647;55.838;37.292;2023-05-19T05:29:02;11.00;;;5.18;;
71800;SDS011;59647;55.838;37.292;2023-05-19T05:31:29;14.38;;;6.18;;
71800;SDS011;59647;55.838;37.292;2023-05-19T05:33:57;14.95;;;5.22;;
71800;SDS011;59647;55.838;37.292;2023-05-19T05:36:26;21.30;;;6.05;;
71800;SDS011;59647;55.838;37.292;2023-05-19T05:38:53;10.65;;;5.30;;
71800;SDS011;59647;55.838;37.292;2023-05-19T05:41:19;11.73;;;6.63;;
71800;SDS011;59647;55.838;37.292;2023-05-19T05:43:48;10.65;;;5.75;;
71800;SDS011;59647;55.838;37.292;2023-05-19T05:46:14;13.52;;;6.63;;
71800;SDS011;59647;55.838;37.292;2023-05-19T05:48:40;13.90;;;6.35;;
71800;SDS011;59647;55.838;37.292;2023-05-19T05:51:07;14.20;;;7.13;;
71800;SDS011;59647;55.838;37.292;2023-05-19T05:53:35;21.30;;;6.45;;
71800;SDS011;59647;55.838;37.292;2023-05-19T05:56:06;13.10;;;6.47;;
71800;SDS011;59647;55.838;37.292;2023-05-19T06:01:06;14.85;;;5.60;;
71800;SDS011;59647;55.838;37.292;2023-05-19T06:03:39;9.95;;;5.55;;
71800;SDS011;59647;55.838;37.292;2023-05-19T06:06:07;15.68;;;6.43;;
71800;SDS011;59647;55.838;37.292;2023-05-19T06:08:34;15.52;;;7.75;;
71800;SDS011;59647;55.838;37.292;2023-05-19T06:11:02;11.60;;;6.15;;
71800;SDS011;59647;55.838;37.292;2023-05-19T06:13:35;18.52;;;6.90;;
71800;SDS011;59647;55.838;37.292;2023-05-19T06:16:04;17.88;;;7.18;;
71800;SDS011;59647;55.838;37.292;2023-05-19T06:18:37;15.77;;;7.35;;
71800;SDS011;59647;55.838;37.292;2023-05-19T06:21:03;10.90;;;6.15;;
71800;SDS011;59647;55.838;37.292;2023-05-19T06:23:29;12.45;;;6.35;;
71800;SDS011;59647;55.838;37.292;2023-05-19T06:25:55;24.13;;;6.80;;
71800;SDS011;59647;55.838;37.292;2023-05-19T06:28:22;15.60;;;7.38;;
71800;SDS011;59647;55.838;37.292;2023-05-19T06:30:50;18.23;;;6.55;;
71800;SDS011;59647;55.838;37.292;2023-05-19T06:33:26;18.38;;;5.85;;
71800;SDS011;59647;55.838;37.292;2023-05-19T06:35:52;12.25;;;5.88;;
71800;SDS011;59647;55.838;37.292;2023-05-19T06:38:19;13.73;;;6.28;;
71800;SDS011;59647;55.838;37.292;2023-05-19T06:40:45;13.40;;;5.82;;
71800;SDS011;59647;55.838;37.292;2023-05-19T06:43:12;18.98;;;6.28;;
71800;SDS011;59647;55.838;37.292;2023-05-19T06:45:55;8.50;;;5.60;;
71800;SDS011;59647;55.838;37.292;2023-05-19T06:48:23;8.82;;;4.55;;
71800;SDS011;59647;55.838;37.292;2023-05-19T06:50:49;18.65;;;6.65;;
71800;SDS011;59647;55.838;37.292;2023-05-19T06:53:15;14.10;;;5.85;;
71800;SDS011;59647;55.838;37.292;2023-05-19T06:55:43;12.07;;;5.40;;
71800;SDS011;59647;55.838;37.292;2023-05-19T06:58:11;13.80;;;6.13;;
71800;SDS011;59647;55.838;37.292;2023-05-19T07:00:37;10.30;;;5.28;;
71800;SDS011;59647;55.838;37.292;2023-05-19T07:03:05;14.45;;;4.80;;
71800;SDS011;59647;55.838;37.292;2023-05-19T07:05:31;8.30;;;4.88;;
71800;SDS011;59647;55.838;37.292;2023-05-19T07:07:59;15.13;;;5.80;;
71800;SDS011;59647;55.838;37.292;2023-05-19T07:10:27;14.52;;;4.78;;
71800;SDS011;59647;55.838;37.292;2023-05-19T07:12:54;13.68;;;4.78;;
71800;SDS011;59647;55.838;37.292;2023-05-19T07:15:23;12.50;;;3.95;;
71800;SDS011;59647;55.838;37.292;2023-05-19T07:17:49;10.88;;;5.00;;
71800;SDS011;59647;55.838;37.292;2023-05-19T07:20:15;14.55;;;4.95;;
71800;SDS011;59647;55.838;37.292;2023-05-19T07:22:41;11.05;;;4.57;;
71800;SDS011;59647;55.838;37.292;2023-05-19T07:25:07;7.40;;;3.50;;
71800;SDS011;59647;55.838;37.292;2023-05-19T07:27:34;8.30;;;4.07;;
71800;SDS011;59647;55.838;37.292;2023-05-19T07:30:00;6.70;;;3.42;;
71800;SDS011;59647;55.838;37.292;2023-05-19T07:32:26;7.80;;;3.83;;
71800;SDS011;59647;55.838;37.292;2023-05-19T07:34:52;5.40;;;2.90;;
71800;SDS011;59647;55.838;37.292;2023-05-19T07:37:18;12.77;;;3.05;;
71800;SDS011;59647;55.838;37.292;2023-05-19T07:39:43;5.97;;;2.33;;
71800;SDS011;59647;55.838;37.292;2023-05-19T07:42:09;5.10;;;2.85;;
71800;SDS011;59647;55.838;37.292;2023-05-19T07:44:35;7.97;;;3.03;;
71800;SDS011;59647;55.838;37.292;2023-05-19T07:47:01;7.25;;;3.00;;
71800;SDS011;59647;55.838;37.292;2023-05-19T07:49:27;15.07;;;3.10;;
71800;SDS011;59647;55.838;37.292;2023-05-19T07:51:53;7.55;;;3.13;;
71800;SDS011;59647;55.838;37.292;2023-05-19T07:54:19;6.10;;;2.50;;
71800;SDS011;59647;55.838;37.292;2023-05-19T07:56:45;9.10;;;2.70;;
71800;SDS011;59647;55.838;37.292;2023-05-19T07:59:13;5.72;;;3.20;;
71800;SDS011;59647;55.838;37.292;2023-05-19T08:01:39;11.80;;;3.15;;
71800;SDS011;59647;55.838;37.292;2023-05-19T08:04:05;14.98;;;3.67;;
71800;SDS011;59647;55.838;37.292;2023-05-19T08:06:31;5.38;;;2.03;;
71800;SDS011;59647;55.838;37.292;2023-05-19T08:08:57;4.53;;;2.38;;
71800;SDS011;59647;55.838;37.292;2023-05-19T08:11:23;5.70;;;2.00;;
71800;SDS011;59647;55.838;37.292;2023-05-19T08:13:49;11.07;;;3.17;;
71800;SDS011;59647;55.838;37.292;2023-05-19T08:16:15;9.95;;;3.38;;
71800;SDS011;59647;55.838;37.292;2023-05-19T08:18:41;10.32;;;2.88;;
71800;SDS011;59647;55.838;37.292;2023-05-19T08:21:07;18.10;;;3.50;;
71800;SDS011;59647;55.838;37.292;2023-05-19T08:23:33;4.30;;;2.00;;
71800;SDS011;59647;55.838;37.292;2023-05-19T08:25:59;3.30;;;1.67;;
71800;SDS011;59647;55.838;37.292;2023-05-19T08:28:26;3.88;;;2.00;;
71800;SDS011;59647;55.838;37.292;2023-05-19T08:30:52;5.60;;;1.80;;
71800;SDS011;59647;55.838;37.292;2023-05-19T08:33:18;5.00;;;2.13;;
71800;SDS011;59647;55.838;37.292;2023-05-19T08:35:46;4.18;;;1.90;;
71800;SDS011;59647;55.838;37.292;2023-05-19T08:38:12;5.47;;;1.85;;
71800;SDS011;59647;55.838;37.292;2023-05-19T08:40:41;7.82;;;2.22;;
71800;SDS011;59647;55.838;37.292;2023-05-19T08:43:07;6.57;;;1.83;;
71800;SDS011;59647;55.838;37.292;2023-05-19T08:45:35;8.35;;;1.92;;
71800;SDS011;59647;55.838;37.292;2023-05-19T08:48:03;3.53;;;1.60;;
71800;SDS011;59647;55.838;37.292;2023-05-19T08:50:30;4.05;;;1.58;;
71800;SDS011;59647;55.838;37.292;2023-05-19T08:53:06;4.05;;;1.85;;
71800;SDS011;59647;55.838;37.292;2023-05-19T08:58:17;4.97;;;1.67;;
71800;SDS011;59647;55.838;37.292;2023-05-19T09:00:46;11.88;;;1.63;;
71800;SDS011;59647;55.838;37.292;2023-05-19T09:03:13;14.85;;;3.53;;
71800;SDS011;59647;55.838;37.292;2023-05-19T09:05:42;6.80;;;2.00;;
71800;SDS011;59647;55.838;37.292;2023-05-19T09:08:08;10.85;;;2.25;;
71800;SDS011;59647;55.838;37.292;2023-05-19T09:10:34;25.02;;;3.42;;
71800;SDS011;59647;55.838;37.292;2023-05-19T09:13:00;5.25;;;1.83;;
71800;SDS011;59647;55.838;37.292;2023-05-19T09:15:26;6.70;;;1.70;;
71800;SDS011;59647;55.838;37.292;2023-05-19T09:18:06;2.13;;;1.00;;
71800;SDS011;59647;55.838;37.292;2023-05-19T09:20:36;6.95;;;1.40;;
71800;SDS011;59647;55.838;37.292;2023-05-19T09:25:46;6.03;;;1.60;;
71800;SDS011;59647;55.838;37.292;2023-05-19T09:28:12;5.47;;;1.58;;
71800;SDS011;59647;55.838;37.292;2023-05-19T09:30:38;4.05;;;1.55;;
71800;SDS011;59647;55.838;37.292;2023-05-19T09:33:04;8.55;;;1.27;;
71800;SDS011;59647;55.838;37.292;2023-05-19T09:35:34;9.98;;;2.47;;
71800;SDS011;59647;55.838;37.292;2023-05-19T09:38:01;7.28;;;2.55;;
71800;SDS011;59647;55.838;37.292;2023-05-19T09:40:27;5.70;;;1.45;;
71800;SDS011;59647;55.838;37.292;2023-05-19T09:42:53;5.32;;;1.67;;
71800;SDS011;59647;55.838;37.292;2023-05-19T09:45:19;7.45;;;1.30;;
71800;SDS011;59647;55.838;37.292;2023-05-19T09:47:45;3.53;;;1.42;;
71800;SDS011;59647;55.838;37.292;2023-05-19T09:50:11;2.42;;;1.30;;
71800;SDS011;59647;55.838;37.292;2023-05-19T09:52:38;2.58;;;1.10;;
71800;SDS011;59647;55.838;37.292;2023-05-19T09:55:08;4.63;;;1.80;;
71800;SDS011;59647;55.838;37.292;2023-05-19T09:57:35;3.78;;;1.25;;
71800;SDS011;59647;55.838;37.292;2023-05-19T10:00:06;4.20;;;1.40;;
71800;SDS011;59647;55.838;37.292;2023-05-19T10:02:39;4.00;;;1.10;;
71800;SDS011;59647;55.838;37.292;2023-05-19T10:05:10;11.40;;;2.45;;
71800;SDS011;59647;55.838;37.292;2023-05-19T10:07:44;7.90;;;1.25;;
71800;SDS011;59647;55.838;37.292;2023-05-19T10:10:13;4.55;;;1.10;;
71800;SDS011;59647;55.838;37.292;2023-05-19T10:12:40;9.77;;;1.33;;
71800;SDS011;59647;55.838;37.292;2023-05-19T10:15:10;2.03;;;1.00;;
71800;SDS011;59647;55.838;37.292;2023-05-19T10:17:38;5.90;;;1.42;;
71800;SDS011;59647;55.838;37.292;2023-05-19T10:20:06;5.53;;;1.67;;
71800;SDS011;59647;55.838;37.292;2023-05-19T10:22:33;6.30;;;0.98;;
71800;SDS011;59647;55.838;37.292;2023-05-19T10:24:59;4.00;;;1.05;;
71800;SDS011;59647;55.838;37.292;2023-05-19T10:27:25;2.63;;;1.00;;
71800;SDS011;59647;55.838;37.292;2023-05-19T10:29:54;3.35;;;1.63;;
71800;SDS011;59647;55.838;37.292;2023-05-19T10:32:23;3.83;;;1.30;;
71800;SDS011;59647;55.838;37.292;2023-05-19T10:40:27;4.40;;;1.50;;
71800;SDS011;59647;55.838;37.292;2023-05-19T10:45:50;4.82;;;1.25;;
71800;SDS011;59647;55.838;37.292;2023-05-19T10:48:18;6.30;;;1.35;;
71800;SDS011;59647;55.838;37.292;2023-05-19T10:50:46;4.70;;;1.25;;
71800;SDS011;59647;55.838;37.292;2023-05-19T10:53:15;8.05;;;1.55;;
71800;SDS011;59647;55.838;37.292;2023-05-19T10:55:44;4.40;;;0.98;;
71800;SDS011;59647;55.838;37.292;2023-05-19T10:58:14;3.55;;;1.30;;
71800;SDS011;59647;55.838;37.292;2023-05-19T11:01:00;3.10;;;1.30;;
71800;SDS011;59647;55.838;37.292;2023-05-19T11:03:27;4.20;;;0.90;;
71800;SDS011;59647;55.838;37.292;2023-05-19T11:06:15;14.82;;;1.85;;
71800;SDS011;59647;55.838;37.292;2023-05-19T11:08:42;6.20;;;1.10;;
71800;SDS011;59647;55.838;37.292;2023-05-19T11:11:12;4.88;;;1.80;;
71800;SDS011;59647;55.838;37.292;2023-05-19T11:13:39;2.13;;;1.10;;
71800;SDS011;59647;55.838;37.292;2023-05-19T11:16:07;5.05;;;1.52;;
71800;SDS011;59647;55.838;37.292;2023-05-19T11:18:34;4.13;;;1.58;;
71800;SDS011;59647;55.838;37.292;2023-05-19T11:21:02;5.38;;;0.80;;
71800;SDS011;59647;55.838;37.292;2023-05-19T11:23:29;12.13;;;1.48;;
71800;SDS011;59647;55.838;37.292;2023-05-19T11:25:59;12.07;;;1.25;;
71800;SDS011;59647;55.838;37.292;2023-05-19T11:28:26;6.28;;;1.13;;
71800;SDS011;59647;55.838;37.292;2023-05-19T11:30:54;4.38;;;1.20;;
71800;SDS011;59647;55.838;37.292;2023-05-19T11:33:23;4.25;;;1.00;;
71800;SDS011;59647;55.838;37.292;2023-05-19T11:35:54;4.00;;;1.08;;
71800;SDS011;59647;55.838;37.292;2023-05-19T11:38:25;9.13;;;0.93;;
71800;SDS011;59647;55.838;37.292;2023-05-19T11:40:52;3.90;;;1.50;;
71800;SDS011;59647;55.838;37.292;2023-05-19T11:43:21;2.70;;;0.80;;
71800;SDS011;59647;55.838;37.292;2023-05-19T11:45:48;4.32;;;1.15;;
71800;SDS011;59647;55.838;37.292;2023-05-19T11:48:14;3.72;;;1.10;;
71800;SDS011;59647;55.838;37.292;2023-05-19T11:50:40;5.30;;;1.10;;
71800;SDS011;59647;55.838;37.292;2023-05-19T11:53:10;4.53;;;1.23;;
71800;SDS011;59647;55.838;37.292;2023-05-19T11:55:41;7.50;;;1.67;;
71800;SDS011;59647;55.838;37.292;2023-05-19T11:58:09;18.45;;;1.90;;
71800;SDS011;59647;55.838;37.292;2023-05-19T12:00:36;1.42;;;1.00;;
71800;SDS011;59647;55.838;37.292;2023-05-19T12:03:04;12.88;;;1.30;;
71800;SDS011;59647;55.838;37.292;2023-05-19T12:05:30;7.57;;;1.40;;
71800;SDS011;59647;55.838;37.292;2023-05-19T12:07:57;3.80;;;1.00;;
71800;SDS011;59647;55.838;37.292;2023-05-19T12:10:28;5.50;;;1.35;;
71800;SDS011;59647;55.838;37.292;2023-05-19T12:12:55;10.43;;;1.58;;
71800;SDS011;59647;55.838;37.292;2023-05-19T12:15:23;20.48;;;3.13;;
71800;SDS011;59647;55.838;37.292;2023-05-19T12:17:56;23.75;;;4.75;;
71800;SDS011;59647;55.838;37.292;2023-05-19T12:20:24;23.75;;;2.80;;
71800;SDS011;59647;55.838;37.292;2023-05-19T12:22:51;10.57;;;2.42;;
71800;SDS011;59647;55.838;37.292;2023-05-19T12:25:19;81.78;;;11.13;;
71800;SDS011;59647;55.838;37.292;2023-05-19T12:27:46;5.20;;;1.05;;
71800;SDS011;59647;55.838;37.292;2023-05-19T12:30:15;4.97;;;1.10;;
71800;SDS011;59647;55.838;37.292;2023-05-19T12:32:41;9.45;;;1.92;;
71800;SDS011;59647;55.838;37.292;2023-05-19T12:35:08;11.75;;;2.03;;
71800;SDS011;59647;55.838;37.292;2023-05-19T12:37:35;5.97;;;1.20;;
71800;SDS011;59647;55.838;37.292;2023-05-19T12:40:05;5.25;;;0.95;;
71800;SDS011;59647;55.838;37.292;2023-05-19T12:42:31;14.45;;;2.55;;
71800;SDS011;59647;55.838;37.292;2023-05-19T12:44:59;7.80;;;1.27;;
71800;SDS011;59647;55.838;37.292;2023-05-19T12:47:31;1.98;;;0.95;;
71800;SDS011;59647;55.838;37.292;2023-05-19T12:50:00;4.95;;;0.93;;
71800;SDS011;59647;55.838;37.292;2023-05-19T12:52:32;3.05;;;0.73;;
71800;SDS011;59647;55.838;37.292;2023-05-19T12:55:00;5.28;;;1.58;;
71800;SDS011;59647;55.838;37.292;2023-05-19T12:57:38;15.13;;;1.70;;
71800;SDS011;59647;55.838;37.292;2023-05-19T13:00:07;11.85;;;1.50;;
71800;SDS011;59647;55.838;37.292;2023-05-19T13:02:54;11.93;;;1.40;;
71800;SDS011;59647;55.838;37.292;2023-05-19T13:05:20;11.35;;;1.30;;
71800;SDS011;59647;55.838;37.292;2023-05-19T13:07:54;4.10;;;1.02;;
71800;SDS011;59647;55.838;37.292;2023-05-19T13:10:27;3.42;;;0.80;;
71800;SDS011;59647;55.838;37.292;2023-05-19T13:12:54;3.63;;;0.90;;
71800;SDS011;59647;55.838;37.292;2023-05-19T13:15:21;2.63;;;1.42;;
71800;SDS011;59647;55.838;37.292;2023-05-19T13:17:48;16.60;;;1.98;;
71800;SDS011;59647;55.838;37.292;2023-05-19T13:20:15;1.67;;;0.73;;
71800;SDS011;59647;55.838;37.292;2023-05-19T13:22:41;4.32;;;1.40;;
71800;SDS011;59647;55.838;37.292;2023-05-19T13:25:07;3.70;;;1.48;;
71800;SDS011;59647;55.838;37.292;2023-05-19T13:27:34;7.43;;;1.15;;
71800;SDS011;59647;55.838;37.292;2023-05-19T13:30:00;2.33;;;0.70;;
71800;SDS011;59647;55.838;37.292;2023-05-19T13:32:31;2.03;;;0.85;;
71800;SDS011;59647;55.838;37.292;2023-05-19T13:34:58;3.20;;;0.82;;
71800;SDS011;59647;55.838;37.292;2023-05-19T13:37:25;4.43;;;1.10;;
71800;SDS011;59647;55.838;37.292;2023-05-19T13:39:51;4.00;;;1.05;;
71800;SDS011;59647;55.838;37.292;2023-05-19T13:42:17;3.33;;;1.20;;
71800;SDS011;59647;55.838;37.292;2023-05-19T13:44:46;7.20;;;1.02;;
71800;SDS011;59647;55.838;37.292;2023-05-19T13:47:12;2.42;;;1.17;;
71800;SDS011;59647;55.838;37.292;2023-05-19T13:49:38;5.53;;;1.38;;
71800;SDS011;59647;55.838;37.292;2023-05-19T13:52:05;2.33;;;0.80;;
71800;SDS011;59647;55.838;37.292;2023-05-19T13:54:32;10.95;;;1.10;;
71800;SDS011;59647;55.838;37.292;2023-05-19T13:56:59;9.77;;;1.27;;
71800;SDS011;59647;55.838;37.292;2023-05-19T13:59:25;12.40;;;2.25;;
71800;SDS011;59647;55.838;37.292;2023-05-19T14:01:51;8.88;;;1.10;;
71800;SDS011;59647;55.838;37.292;2023-05-19T14:04:17;3.15;;;0.90;;
71800;SDS011;59647;55.838;37.292;2023-05-19T14:06:44;2.78;;;1.10;;
71800;SDS011;59647;55.838;37.292;2023-05-19T14:09:10;10.77;;;1.45;;
71800;SDS011;59647;55.838;37.292;2023-05-19T14:11:36;4.82;;;0.93;;
71800;SDS011;59647;55.838;37.292;2023-05-19T14:14:02;1.90;;;0.82;;
71800;SDS011;59647;55.838;37.292;2023-05-19T14:16:28;3.80;;;1.92;;
71800;SDS011;59647;55.838;37.292;2023-05-19T14:18:54;4.70;;;0.85;;
71800;SDS011;59647;55.838;37.292;2023-05-19T14:21:21;6.38;;;1.00;;
71800;SDS011;59647;55.838;37.292;2023-05-19T14:23:47;3.83;;;0.93;;
71800;SDS011;59647;55.838;37.292;2023-05-19T14:26:13;10.00;;;0.98;;
71800;SDS011;59647;55.838;37.292;2023-05-19T14:28:39;1.88;;;0.80;;
71800;SDS011;59647;55.838;37.292;2023-05-19T14:31:05;2.80;;;1.00;;
71800;SDS011;59647;55.838;37.292;2023-05-19T14:33:39;2.28;;;0.98;;
71800;SDS011;59647;55.838;37.292;2023-05-19T14:36:06;2.85;;;1.15;;
71800;SDS011;59647;55.838;37.292;2023-05-19T14:38:32;12.43;;;1.38;;
71800;SDS011;59647;55.838;37.292;2023-05-19T14:40:59;3.58;;;0.90;;
71800;SDS011;59647;55.838;37.292;2023-05-19T14:43:25;8.43;;;1.35;;
71800;SDS011;59647;55.838;37.292;2023-05-19T14:45:50;5.63;;;0.82;;
71800;SDS011;59647;55.838;37.292;2023-05-19T14:48:16;10.88;;;1.60;;
71800;SDS011;59647;55.838;37.292;2023-05-19T14:50:43;1.63;;;0.73;;
71800;SDS011;59647;55.838;37.292;2023-05-19T14:53:12;4.53;;;0.90;;
71800;SDS011;59647;55.838;37.292;2023-05-19T14:55:38;11.38;;;1.50;;
71800;SDS011;59647;55.838;37.292;2023-05-19T14:58:05;6.47;;;0.82;;
71800;SDS011;59647;55.838;37.292;2023-05-19T15:00:31;7.65;;;0.90;;
71800;SDS011;59647;55.838;37.292;2023-05-19T15:02:57;6.72;;;1.08;;
71800;SDS011;59647;55.838;37.292;2023-05-19T15:05:23;5.68;;;0.85;;
71800;SDS011;59647;55.838;37.292;2023-05-19T15:07:50;1.70;;;0.80;;
71800;SDS011;59647;55.838;37.292;2023-05-19T15:10:19;3.03;;;0.77;;
71800;SDS011;59647;55.838;37.292;2023-05-19T15:12:46;7.40;;;1.27;;